JP-0081 weather

Yoshima Helipad
Yoshima, Kagawa Prefecture, Japan

Public forecast

Using degrees Celsius for public forecast. Weather courtesy of forecast.io.

METAR (pilot weather report)

Closest report is Takamatsu Airport, 14.6 nm (27.0 km) SE. Retrieved 2019/05/19 22:00 UTC (51 minutes ago):

RJOT 192200Z VRB02KT 9999 -SHRA FEW020 SCT040 BKN130 20/16 Q1009

TAF (pilot weather forecast)

Closest forecast is Takamatsu Airport, 14.6 nm (27.0 km) SE. Retrieved 2019/05/19 18:00 UTC (5 hours ago):

TAF RJOT 191710Z 1918/2100 11007KT 9999 -RA FEW015 SCT035 BKN060 TEMPO 2009/2012 4000 SHRA BR BECMG 2012/2015 18006KT TEMPO 2012/2018 2500 SHRA BR FEW001 BKN008 BKN015 BECMG 2015/2018 26012KT